Terminal Aerodrome Forecast
Issued by NWS

Home | Current Version | Previous Version | Text Only | Print | Product List | Glossary On
Versions: 1 2 3 4 5 6 7 8 9 10 11 12 13 14 15 16
979
FTPA31 PHFO 040543
TAFHNY
TAF
PHNY 040543Z 0406/0506 05010KT P6SM FEW025 SCT035
     FM041200 VRB03KT P6SM FEW025
     FM042200 24005KT P6SM FEW025
     FM050000 02010KT P6SM SCT025=

USA.gov is the U.S. government's official web portal to all federal, state and local government web resources and services.